Time;durP1;ratioP1;P1;durP2;ratioP2;P2;SDS_P1;SDS_P2;PMS_P1;PMS_P2;Temp;Humidity;BMP_temperature;BMP_pressure;BME280_temperature;BME280_humidity;BME280_pressure;Samples;Min_cycle;Max_cycle;Signal;HPM_P1;HPM_P2
2023/01/02 00:01:20;;;;;;;;;6.00;3.00;;;;;15.26;66.11;100766.53;5024038;28;45823;-64
2023/01/02 00:03:45;;;;;;;;;4.33;3.00;;;;;15.20;66.26;100751.28;5022767;28;45549;-64
2023/01/02 00:06:11;;;;;;;;;3.00;3.00;;;;;15.26;66.02;100759.41;5018801;28;46466;-64
2023/01/02 00:08:36;;;;;;;;;2.00;1.00;;;;;15.13;66.17;100754.81;5027833;28;45499;-64
2023/01/02 00:11:04;;;;;;;;;3.00;3.00;;;;;15.24;66.61;100777.31;5024937;28;45501;-62
2023/01/02 00:13:30;;;;;;;;;4.00;2.00;;;;;15.20;66.49;100778.19;5028389;28;45502;-63
2023/01/02 00:15:55;;;;;;;;;9.00;4.00;;;;;15.21;66.53;100782.69;5023922;28;46180;-63
2023/01/02 00:18:20;;;;;;;;;3.67;3.67;;;;;15.21;66.30;100785.38;5031936;28;45563;-65
2023/01/02 00:20:46;;;;;;;;;6.33;3.33;;;;;15.04;66.68;100763.69;5023531;28;45493;-63
2023/01/02 00:23:11;;;;;;;;;6.00;4.00;;;;;14.73;66.96;100716.81;5026819;28;45629;-63
2023/01/02 00:25:36;;;;;;;;;1.33;1.33;;;;;15.09;67.16;100782.56;5033216;28;46087;-63
2023/01/02 00:28:02;;;;;;;;;3.67;3.33;;;;;15.10;67.30;100793.34;5027126;28;45564;-62
2023/01/02 00:30:28;;;;;;;;;3.33;2.00;;;;;14.93;67.38;100770.75;5027450;28;45573;-63
2023/01/02 00:32:53;;;;;;;;;2.00;2.00;;;;;15.06;67.74;100796.91;5028184;28;45616;-61
2023/01/02 00:35:19;;;;;;;;;5.00;3.33;;;;;14.99;67.88;100781.59;5018720;28;45390;-62
2023/01/02 00:37:44;;;;;;;;;3.67;2.67;;;;;15.06;68.05;100799.59;5030004;28;45625;-62
2023/01/02 00:40:12;;;;;;;;;4.00;2.33;;;;;15.03;67.87;100790.59;5048414;28;45221;-62
2023/01/02 00:42:41;;;;;;;;;4.00;3.00;;;;;15.00;68.49;100782.50;5037955;28;45488;-62
2023/01/02 00:45:08;;;;;;;;;2.00;2.00;;;;;15.01;68.72;100792.38;5037273;28;45116;-64
2023/01/02 00:47:33;;;;;;;;;5.67;3.00;;;;;14.82;69.02;100762.63;5038620;28;45065;-63
2023/01/02 00:49:59;;;;;;;;;1.00;1.00;;;;;14.87;69.05;100774.31;5039326;28;45111;-63
2023/01/02 00:52:24;;;;;;;;;7.00;3.00;;;;;14.91;69.59;100784.22;5048658;28;45185;-63
2023/01/02 00:54:50;;;;;;;;;4.33;3.00;;;;;14.93;69.75;100785.13;5044036;28;45675;-62
2023/01/02 00:57:15;;;;;;;;;2.33;2.33;;;;;14.92;69.75;100788.72;5042207;28;45428;-62
2023/01/02 00:59:41;;;;;;;;;2.33;2.00;;;;;14.85;69.86;100780.56;5043608;28;45043;-64
2023/01/02 01:02:06;;;;;;;;;4.67;2.67;;;;;14.85;70.09;100792.25;5042316;28;45502;-63
2023/01/02 01:04:35;;;;;;;;;5.00;3.00;;;;;14.83;70.50;100793.09;5040946;28;45406;-64
2023/01/02 01:07:01;;;;;;;;;4.67;2.33;;;;;14.82;70.32;100792.22;5044818;28;45199;-63
2023/01/02 01:09:27;;;;;;;;;2.00;1.33;;;;;14.83;70.48;100793.09;5038040;28;45056;-61
2023/01/02 01:11:53;;;;;;;;;3.67;2.00;;;;;14.39;70.79;100724.53;5037880;28;45069;-62
2023/01/02 01:14:18;;;;;;;;;5.00;2.33;;;;;14.75;70.91;100793.03;5042270;28;45545;-64
2023/01/02 01:16:43;;;;;;;;;7.33;3.33;;;;;14.74;71.02;100791.22;5043563;28;45235;-62
2023/01/02 01:19:09;;;;;;;;;2.00;2.00;;;;;14.71;71.19;100783.13;5043336;28;45242;-63
2023/01/02 01:21:34;;;;;;;;;4.33;3.33;;;;;14.74;71.37;100788.53;5042404;28;45063;-62
2023/01/02 01:23:59;;;;;;;;;2.00;2.00;;;;;14.72;71.72;100801.06;5044399;28;45856;-61
2023/01/02 01:26:25;;;;;;;;;2.00;2.00;;;;;14.66;71.51;100804.59;5048354;28;46630;-62
2023/01/02 01:28:55;;;;;;;;;4.00;3.33;;;;;14.47;71.77;100771.19;5048195;28;45082;-61
2023/01/02 01:31:21;;;;;;;;;5.00;2.67;;;;;14.66;71.90;100812.66;5047245;28;45339;-62
2023/01/02 01:33:47;;;;;;;;;4.33;3.00;;;;;14.61;71.73;100813.50;5044797;28;45813;-62
2023/01/02 01:36:23;;;;;;;;;3.00;2.00;;;;;14.63;71.96;100809.91;5042840;28;45287;-61
2023/01/02 01:38:49;;;;;;;;;2.00;2.00;;;;;14.60;71.95;100807.22;5047565;28;45345;-63
2023/01/02 01:41:17;;;;;;;;;4.00;4.00;;;;;14.60;72.20;100798.25;5025285;28;44979;-62
2023/01/02 01:43:50;;;;;;;;;4.00;3.00;;;;;14.57;72.37;100785.66;5050026;28;45549;-63
2023/01/02 01:46:30;;;;;;;;;2.00;2.00;;;;;14.63;72.38;100795.59;5045898;28;45601;-62
2023/01/02 01:49:04;;;;;;;;;6.00;4.00;;;;;14.63;72.63;100804.53;5040827;28;45155;-63
2023/01/02 01:51:34;;;;;;;;;3.67;2.33;;;;;14.50;72.72;100795.44;5043740;28;45353;-64
2023/01/02 01:54:06;;;;;;;;;4.33;2.33;;;;;14.52;72.72;100806.22;5048873;28;45642;-62
2023/01/02 01:56:36;;;;;;;;;2.00;2.00;;;;;14.55;72.42;100820.59;5031221;28;45174;-63
2023/01/02 01:59:02;;;;;;;;;4.00;1.33;;;;;14.55;72.47;100830.41;5044246;28;45122;-65
2023/01/02 02:01:28;;;;;;;;;3.00;1.67;;;;;14.54;72.29;100834.00;5049593;28;45160;-62
2023/01/02 02:03:53;;;;;;;;;1.67;1.67;;;;;14.53;72.95;100838.47;5050567;28;45602;-62
2023/01/02 02:06:19;;;;;;;;;4.67;1.00;;;;;14.52;72.43;100851.91;5043978;28;45184;-64
2023/01/02 02:08:56;;;;;;;;;2.00;2.00;;;;;14.50;72.45;100856.34;5036056;28;45065;-62
2023/01/02 02:11:22;;;;;;;;;5.00;2.00;;;;;14.49;73.02;100863.53;5046677;28;44967;-63
2023/01/02 02:13:49;;;;;;;;;1.33;1.00;;;;;14.46;72.82;100857.22;5051460;28;45758;-63
2023/01/02 02:16:14;;;;;;;;;1.00;1.00;;;;;14.47;72.88;100864.38;5049723;28;45090;-64
2023/01/02 02:19:07;;;;;;;;;1.00;1.00;;;;;14.45;73.18;100875.13;5053207;28;45328;-63
2023/01/02 02:21:47;;;;;;;;;1.67;1.67;;;;;14.45;73.13;100877.81;5032165;28;44970;-64
2023/01/02 02:24:35;;;;;;;;;1.00;1.00;;;;;14.44;73.16;100881.38;5052978;28;45563;-64
2023/01/02 02:27:38;;;;;;;;;2.00;2.00;;;;;14.42;73.51;100885.84;5042152;28;45155;-62
2023/01/02 02:30:13;;;;;;;;;2.33;2.33;;;;;14.42;73.67;100887.59;5046104;28;45066;-64
2023/01/02 02:33:09;;;;;;;;;2.67;1.00;;;;;14.41;74.00;100881.34;5043645;28;45042;-61
2023/01/02 02:35:48;;;;;;;;;2.67;1.67;;;;;14.24;73.88;100867.69;5045827;28;45623;-65
2023/01/02 02:38:23;;;;;;;;;4.67;1.33;;;;;14.35;73.99;100882.19;5039312;28;45324;-62
2023/01/02 02:41:14;;;;;;;;;0.33;0.00;;;;;14.35;74.28;100879.50;5046460;28;45087;-64
2023/01/02 02:43:58;;;;;;;;;2.00;2.00;;;;;14.33;74.76;100883.03;5049579;28;45143;-62
2023/01/02 02:46:45;;;;;;;;;1.00;1.00;;;;;14.34;74.79;100887.53;5041987;28;45217;-62
2023/01/02 02:49:38;;;;;;;;;2.33;2.33;;;;;14.31;75.32;100880.31;5044971;28;45070;-62
2023/01/02 02:52:13;;;;;;;;;2.33;1.00;;;;;14.32;75.56;100882.13;5043496;28;45090;-61
2023/01/02 02:54:55;;;;;;;;;4.00;1.00;;;;;14.25;75.73;100874.84;5043464;28;45204;-65
2023/01/02 02:57:22;;;;;;;;;5.00;2.00;;;;;14.25;76.01;100882.91;5048598;28;45840;-63
2023/01/02 02:59:47;;;;;;;;;3.33;2.00;;;;;14.24;75.94;100870.38;5049668;28;45178;-62
2023/01/02 03:02:15;;;;;;;;;1.00;1.00;;;;;14.23;75.81;100864.97;5046711;28;45240;-62
2023/01/02 03:04:48;;;;;;;;;3.00;0.00;;;;;14.16;76.15;100870.25;5049358;28;45137;-65
2023/01/02 03:07:28;;;;;;;;;1.00;1.00;;;;;14.26;76.09;100892.78;5051754;28;46165;-62
2023/01/02 03:10:06;;;;;;;;;2.00;2.00;;;;;14.25;76.26;100892.78;5050300;28;45119;-65
2023/01/02 03:12:56;;;;;;;;;1.33;1.33;;;;;14.22;76.19;100899.00;5047512;28;44970;-63
2023/01/02 03:15:33;;;;;;;;;3.33;1.00;;;;;14.18;76.13;100899.84;5029958;28;45250;-62
2023/01/02 03:18:31;;;;;;;;;1.00;1.00;;;;;14.11;76.47;100888.09;5051110;28;45944;-62
2023/01/02 03:21:06;;;;;;;;;1.00;1.00;;;;;13.76;75.90;100840.16;5032042;28;44998;-63
2023/01/02 03:23:40;;;;;;;;;2.00;0.67;;;;;13.78;75.40;100838.41;5050566;28;46162;-64
2023/01/02 03:26:06;;;;;;;;;0.00;0.00;;;;;13.96;74.85;100872.69;5047729;28;45354;-64
2023/01/02 03:28:33;;;;;;;;;0.00;0.00;;;;;14.01;74.46;100884.38;5039012;28;45333;-63
2023/01/02 03:31:01;;;;;;;;;0.00;0.00;;;;;13.91;74.42;100869.03;5049505;28;45411;-63
2023/01/02 03:33:35;;;;;;;;;1.67;0.00;;;;;13.98;74.42;100887.03;5050605;28;45145;-65
2023/01/02 03:36:07;;;;;;;;;1.00;0.00;;;;;13.88;73.46;100878.81;5044203;28;45025;-62
2023/01/02 03:38:40;;;;;;;;;1.00;0.00;;;;;13.93;73.40;100898.59;5042141;28;45500;-63
2023/01/02 03:41:13;;;;;;;;;0.67;0.00;;;;;13.93;72.94;100894.13;5048528;28;45640;-63
2023/01/02 03:43:42;;;;;;;;;0.00;0.00;;;;;13.89;72.25;100907.47;5050180;28;45994;-64
2023/01/02 03:46:31;;;;;;;;;0.00;0.00;;;;;13.77;72.49;100886.69;5046590;28;45482;-63
2023/01/02 03:48:59;;;;;;;;;0.00;0.00;;;;;13.86;71.90;100915.47;5042694;28;45955;-63
2023/01/02 03:51:24;;;;;;;;;0.00;0.00;;;;;13.87;72.11;100928.03;5048691;28;45733;-64
2023/01/02 03:53:51;;;;;;;;;0.00;0.00;;;;;13.81;71.96;100920.81;5049732;28;45026;-61
2023/01/02 03:56:35;;;;;;;;;2.00;2.00;;;;;13.83;72.01;100930.66;5031164;28;45162;-62
2023/01/02 03:59:13;;;;;;;;;0.00;0.00;;;;;13.66;72.40;100908.03;5049029;28;45493;-61
2023/01/02 04:02:03;;;;;;;;;0.00;0.00;;;;;13.77;72.07;100938.63;5046099;28;45088;-63
2023/01/02 04:04:48;;;;;;;;;0.00;0.00;;;;;13.51;72.35;100897.91;5047661;28;45279;-62
2023/01/02 04:07:23;;;;;;;;;1.67;0.00;;;;;13.69;72.48;100934.00;5045796;28;45087;-63
2023/01/02 04:09:48;;;;;;;;;0.00;0.00;;;;;13.72;72.79;100945.69;5038936;28;45755;-64
2023/01/02 04:12:19;;;;;;;;;0.00;0.00;;;;;13.70;72.44;100933.16;5044587;28;45213;-64
2023/01/02 04:15:00;;;;;;;;;0.00;0.00;;;;;13.69;73.03;100934.91;5046376;28;45217;-62
2023/01/02 04:17:29;;;;;;;;;0.67;0.00;;;;;13.70;72.90;100925.09;5049714;28;45081;-62
2023/01/02 04:20:03;;;;;;;;;0.67;0.00;;;;;13.41;72.85;100880.78;5047957;28;45231;-64
2023/01/02 04:22:49;;;;;;;;;0.00;0.00;;;;;13.54;73.32;100915.88;5045273;28;45384;-62
2023/01/02 04:25:17;;;;;;;;;0.00;0.00;;;;;13.58;72.67;100929.38;5037469;28;45177;-62
2023/01/02 04:27:50;;;;;;;;;0.00;0.00;;;;;13.35;73.56;100910.19;5037048;28;45032;-62
2023/01/02 04:30:15;;;;;;;;;0.00;0.00;;;;;13.49;73.37;100933.69;5048579;28;45829;-61
2023/01/02 04:32:43;;;;;;;;;0.00;0.00;;;;;13.60;73.41;100954.44;5047944;28;45105;-62
2023/01/02 04:35:13;;;;;;;;;0.00;0.00;;;;;13.57;73.25;100943.66;5049670;28;45150;-62
2023/01/02 04:37:41;;;;;;;;;0.00;0.00;;;;;13.63;73.69;100959.88;5051362;28;45328;-63
2023/01/02 04:40:21;;;;;;;;;0.00;0.00;;;;;13.61;74.05;100956.28;5049950;28;46324;-63
2023/01/02 04:42:46;;;;;;;;;0.00;0.00;;;;;13.52;73.40;100956.09;5044759;28;45328;-63
2023/01/02 04:45:12;;;;;;;;;0.67;0.00;;;;;13.58;73.78;100976.81;5044557;28;45364;-61
2023/01/02 04:47:37;;;;;;;;;0.00;0.00;;;;;13.55;73.36;100984.78;5040201;28;45567;-61
2023/01/02 04:50:04;;;;;;;;;0.33;0.00;;;;;13.53;74.26;100981.16;5045883;28;50427;-62
2023/01/02 04:52:30;;;;;;;;;0.00;0.00;;;;;13.53;74.40;100992.81;5041644;28;45027;-61
2023/01/02 04:54:55;;;;;;;;;0.00;0.00;;;;;13.53;74.47;100994.56;5023106;28;45297;-62
2023/01/02 04:57:20;;;;;;;;;0.00;0.00;;;;;13.54;74.50;101001.75;5044606;28;45122;-62
2023/01/02 04:59:46;;;;;;;;;0.00;0.00;;;;;13.47;74.43;100986.44;5042256;28;60549;-63
2023/01/02 05:02:11;;;;;;;;;0.00;0.00;;;;;13.45;74.55;100987.28;5044141;28;45128;-62
2023/01/02 05:04:36;;;;;;;;;0.00;0.00;;;;;13.50;75.05;101008.88;5041027;28;45066;-61
2023/01/02 05:07:03;;;;;;;;;0.00;0.00;;;;;13.38;74.45;100992.50;5046833;28;45137;-61
2023/01/02 05:09:28;;;;;;;;;0.00;0.00;;;;;13.38;75.27;100997.88;5028764;28;47351;-62
2023/01/02 05:11:54;;;;;;;;;0.00;0.00;;;;;13.31;75.03;100996.81;5047677;28;45081;-63
2023/01/02 05:14:19;;;;;;;;;0.00;0.00;;;;;13.39;74.91;101024.75;5041397;28;45108;-62
2023/01/02 05:16:44;;;;;;;;;0.00;0.00;;;;;13.28;75.08;101015.53;5046403;28;45050;-64
2023/01/02 05:19:11;;;;;;;;;0.00;0.00;;;;;13.34;75.27;101029.13;5042761;28;45572;-64
2023/01/02 05:24:20;;;;;;;;;0.00;0.00;;;;;13.27;75.06;101029.84;5039895;28;45231;-64
2023/01/02 05:26:45;;;;;;;;;0.00;0.00;;;;;13.20;75.32;101028.84;5037217;28;45096;-64
2023/01/02 05:29:11;;;;;;;;;0.00;0.00;;;;;13.34;75.15;101058.66;5042423;28;45389;-63
2023/01/02 05:31:36;;;;;;;;;0.00;0.00;;;;;13.27;74.90;101045.97;5047822;28;45206;-62
2023/01/02 05:34:02;;;;;;;;;0.00;0.00;;;;;13.34;75.70;101058.66;5047370;28;45294;-61
2023/01/02 05:36:27;;;;;;;;;0.00;0.00;;;;;13.36;75.14;101064.03;5049979;28;45224;-65
2023/01/02 05:38:53;;;;;;;;;0.33;0.00;;;;;13.36;75.34;101066.72;5045058;28;45644;-62
2023/01/02 05:41:20;;;;;;;;;0.00;0.00;;;;;13.27;75.69;101060.28;5049126;28;45165;-62
2023/01/02 05:43:45;;;;;;;;;0.00;0.00;;;;;13.36;75.79;101082.81;5050098;28;45201;-63
2023/01/02 05:46:13;;;;;;;;;0.00;0.00;;;;;13.36;75.46;101085.50;5045550;28;45232;-64
2023/01/02 05:48:39;;;;;;;;;2.00;0.00;;;;;13.36;75.20;101089.09;5039254;28;45251;-64
2023/01/02 05:51:06;;;;;;;;;0.00;0.00;;;;;13.31;75.27;101077.34;5039327;28;44932;-62
2023/01/02 05:53:32;;;;;;;;;0.00;0.00;;;;;12.99;76.32;101017.66;5042568;28;44958;-62
2023/01/02 05:56:09;;;;;;;;;0.00;0.00;;;;;13.37;75.81;101093.59;5040909;28;45155;-64
2023/01/02 05:58:36;;;;;;;;;0.00;0.00;;;;;13.39;75.41;101096.31;5047983;28;45186;-62
2023/01/02 06:01:04;;;;;;;;;0.00;0.00;;;;;13.39;75.61;101093.63;5040100;28;45165;-64
2023/01/02 06:03:29;;;;;;;;;0.00;0.00;;;;;13.43;75.29;101091.06;5043057;28;45038;-64
2023/01/02 06:05:54;;;;;;;;;0.00;0.00;;;;;13.36;75.70;101082.81;5040860;28;44920;-64
2023/01/02 06:08:20;;;;;;;;;3.00;0.00;;;;;13.36;75.19;101086.41;5044027;28;50620;-63
2023/01/02 06:10:50;;;;;;;;;0.00;0.00;;;;;13.42;75.13;101099.97;5041421;28;44986;-63
2023/01/02 06:13:15;;;;;;;;;0.00;0.00;;;;;13.40;74.85;101106.19;5042370;28;45231;-64
2023/01/02 06:15:40;;;;;;;;;0.33;0.33;;;;;13.39;75.56;101105.25;5047006;28;45101;-65
2023/01/02 06:18:06;;;;;;;;;0.00;0.00;;;;;13.13;75.52;101060.84;5044266;28;45701;-62
2023/01/02 06:20:31;;;;;;;;;2.67;1.33;;;;;13.40;75.59;101112.44;5041408;28;45554;-65
2023/01/02 06:22:56;;;;;;;;;3.33;2.67;;;;;13.33;75.41;101105.16;5027851;28;45394;-63
2023/01/02 06:25:22;;;;;;;;;1.33;1.00;;;;;13.44;75.33;101130.41;5039301;28;44937;-63
2023/01/02 06:27:47;;;;;;;;;1.00;1.00;;;;;13.46;75.16;101133.13;5040396;28;45426;-63
2023/01/02 06:30:13;;;;;;;;;2.00;2.00;;;;;13.44;75.18;101127.72;5048700;28;44975;-64
2023/01/02 06:32:38;;;;;;;;;0.00;0.00;;;;;13.45;74.59;101128.66;5031006;28;44939;-63
2023/01/02 06:35:04;;;;;;;;;0.00;0.00;;;;;13.38;74.93;101133.00;5049327;28;45003;-63
2023/01/02 06:37:29;;;;;;;;;0.00;0.00;;;;;13.41;74.25;101140.19;5044641;28;45249;-66
2023/01/02 06:39:54;;;;;;;;;0.00;0.00;;;;;13.39;74.14;101141.94;5050205;28;58149;-65
2023/01/02 06:42:20;;;;;;;;;0.67;0.00;;;;;13.38;74.82;101154.47;5039187;28;45231;-63
2023/01/02 06:44:45;;;;;;;;;1.00;1.00;;;;;13.39;74.92;101141.94;5051887;28;45229;-67
2023/01/02 06:47:10;;;;;;;;;0.00;0.00;;;;;13.30;74.43;101126.53;5038525;28;45576;-62
2023/01/02 06:49:36;;;;;;;;;0.00;0.00;;;;;13.35;73.94;101145.44;5050450;28;45074;-62
2023/01/02 06:52:01;;;;;;;;;0.00;0.00;;;;;13.33;73.87;101153.47;5050549;28;47186;-62
2023/01/02 06:54:26;;;;;;;;;0.00;0.00;;;;;13.31;74.16;101143.53;5046599;28;45177;-65
2023/01/02 06:56:52;;;;;;;;;0.00;0.00;;;;;13.29;74.46;101135.44;5039623;28;45129;-64
2023/01/02 06:59:17;;;;;;;;;0.00;0.00;;;;;13.27;74.38;101143.44;5025315;28;45121;-63
2023/01/02 07:01:42;;;;;;;;;0.00;0.00;;;;;13.34;74.74;101144.53;5049927;28;45246;-64
2023/01/02 07:04:16;;;;;;;;;1.00;0.00;;;;;13.35;73.93;101145.44;5047323;28;45146;-65
2023/01/02 07:06:41;;;;;;;;;1.33;1.00;;;;;13.35;72.80;101140.97;5027202;28;47314;-63
2023/01/02 07:09:06;;;;;;;;;0.00;0.00;;;;;13.34;73.18;101141.84;5046661;28;58016;-64
2023/01/02 07:11:32;;;;;;;;;0.00;0.00;;;;;13.32;72.26;101148.03;5042688;28;45154;-63
2023/01/02 07:13:57;;;;;;;;;0.00;0.00;;;;;13.13;72.49;101127.94;5025199;28;45220;-63
2023/01/02 07:16:24;;;;;;;;;0.00;0.00;;;;;13.30;72.30;101158.72;5047853;28;45145;-63
2023/01/02 07:18:53;;;;;;;;;2.00;0.33;;;;;13.31;72.47;101163.19;5045476;28;45286;-62
2023/01/02 07:21:19;;;;;;;;;0.00;0.00;;;;;13.35;72.60;101159.75;5031203;28;46160;-62
2023/01/02 07:23:45;;;;;;;;;0.00;0.00;;;;;13.36;72.91;101168.72;5049230;28;45327;-65
2023/01/02 07:26:11;;;;;;;;;2.67;2.67;;;;;13.37;72.73;101167.84;5030468;28;45587;-64
2023/01/02 07:28:37;;;;;;;;;1.33;0.67;;;;;13.36;73.03;101174.06;5045359;28;45226;-65
2023/01/02 07:31:06;;;;;;;;;0.00;0.00;;;;;13.34;72.44;101170.47;5042311;28;45363;-64
2023/01/02 07:33:32;;;;;;;;;4.00;2.00;;;;;13.28;73.00;101155.06;5047871;28;45168;-68
2023/01/02 07:36:02;;;;;;;;;14.00;10.00;;;;;13.37;72.59;101167.84;5046093;28;45141;-64
2023/01/02 07:38:28;;;;;;;;;4.00;4.00;;;;;13.36;72.33;101174.97;5045232;28;45129;-62
2023/01/02 07:40:54;;;;;;;;;0.67;0.67;;;;;13.34;71.80;101168.66;5043588;28;45038;-63
2023/01/02 07:43:20;;;;;;;;;1.00;1.00;;;;;13.27;72.75;101170.28;5041687;28;45249;-62
2023/01/02 07:45:45;;;;;;;;;0.67;0.00;;;;;13.28;72.61;101176.53;5045946;28;45786;-64
2023/01/02 07:48:11;;;;;;;;;0.67;0.67;;;;;13.26;72.21;101186.34;5041158;28;45163;-63
2023/01/02 07:50:36;;;;;;;;;3.00;2.00;;;;;13.21;71.63;101180.88;5043520;28;45082;-65
2023/01/02 07:53:01;;;;;;;;;0.00;0.00;;;;;13.14;72.45;101178.94;5039262;28;45209;-63
2023/01/02 07:55:27;;;;;;;;;2.33;1.00;;;;;13.13;72.38;101201.25;5045387;28;45477;-65
2023/01/02 07:57:52;;;;;;;;;1.00;1.00;;;;;13.07;71.32;101204.72;5041670;28;45426;-66
2023/01/02 08:00:18;;;;;;;;;1.33;0.00;;;;;13.06;71.66;101197.53;5045134;28;45106;-62
2023/01/02 08:02:45;;;;;;;;;5.33;4.00;;;;;13.12;72.27;101218.25;5045088;28;46022;-62
2023/01/02 08:05:10;;;;;;;;;0.00;0.00;;;;;12.99;71.39;101206.31;5040652;28;45281;-63
2023/01/02 08:07:36;;;;;;;;;0.33;0.33;;;;;13.08;72.02;101213.66;5046968;28;45412;-63
2023/01/02 08:10:02;;;;;;;;;1.00;0.33;;;;;13.15;71.56;101234.41;5040515;28;45468;-62
2023/01/02 08:12:27;;;;;;;;;1.67;1.67;;;;;13.14;71.48;101248.69;5046024;28;45615;-65
2023/01/02 08:14:53;;;;;;;;;0.33;0.00;;;;;13.15;71.61;101253.19;5044990;28;45856;-63
2023/01/02 08:17:18;;;;;;;;;1.00;1.00;;;;;13.14;71.62;101253.16;5049445;28;45302;-63
2023/01/02 08:19:43;;;;;;;;;0.00;0.00;;;;;13.16;71.29;101259.47;5030788;28;45084;-64
2023/01/02 08:22:09;;;;;;;;;3.67;3.67;;;;;13.13;71.73;101254.00;5043396;28;45207;-64
2023/01/02 08:24:34;;;;;;;;;2.00;2.00;;;;;13.20;71.41;101262.25;5040032;28;62766;-63
2023/01/02 08:27:00;;;;;;;;;0.33;0.33;;;;;13.12;71.34;101254.91;5041762;28;45082;-64
2023/01/02 08:29:25;;;;;;;;;3.00;2.33;;;;;13.22;71.11;101273.91;5037459;28;45020;-62
2023/01/02 08:31:50;;;;;;;;;1.67;1.67;;;;;13.22;71.13;101290.03;5028376;28;45733;-65
2023/01/02 08:34:16;;;;;;;;;0.33;0.00;;;;;13.20;70.83;101285.47;5025281;28;46104;-64
2023/01/02 08:36:42;;;;;;;;;1.00;0.67;;;;;13.19;71.05;101287.25;5021605;28;45553;-65
2023/01/02 08:39:08;;;;;;;;;1.00;1.00;;;;;12.74;71.39;101199.44;5021911;28;45449;-66
2023/01/02 08:41:39;;;;;;;;;0.00;0.00;;;;;13.13;71.17;101281.75;5026271;28;45650;-65
2023/01/02 08:44:06;;;;;;;;;2.00;2.00;;;;;13.16;70.84;101294.34;5025494;28;45692;-66
2023/01/02 08:46:32;;;;;;;;;6.00;3.00;;;;;13.14;71.68;101291.63;5032626;28;45514;-62
2023/01/02 08:48:58;;;;;;;;;1.00;1.00;;;;;13.12;71.30;101295.16;5032410;28;45574;-64
2023/01/02 08:51:24;;;;;;;;;2.00;0.67;;;;;13.13;70.74;101305.00;5024701;28;45748;-62
2023/01/02 08:53:50;;;;;;;;;3.00;1.33;;;;;13.07;70.52;101308.44;5033870;28;46313;-64
2023/01/02 08:56:16;;;;;;;;;0.67;0.67;;;;;13.12;70.14;101336.28;5038892;28;45704;-64
2023/01/02 08:58:41;;;;;;;;;1.00;1.00;;;;;13.11;70.69;101349.66;5030848;28;45502;-63
2023/01/02 09:01:07;;;;;;;;;2.67;1.33;;;;;13.07;71.07;101360.31;5031647;28;45634;-64
2023/01/02 09:03:32;;;;;;;;;0.00;0.00;;;;;13.01;70.63;101361.91;5030337;28;45566;-64
2023/01/02 09:05:57;;;;;;;;;2.00;1.00;;;;;13.06;70.60;101376.34;5035408;28;45522;-65
2023/01/02 09:08:23;;;;;;;;;0.00;0.00;;;;;13.01;70.86;101378.00;5025874;28;44882;-63
2023/01/02 09:10:48;;;;;;;;;0.00;0.00;;;;;13.00;70.48;101382.47;5024964;28;45366;-63
2023/01/02 09:13:13;;;;;;;;;1.00;1.00;;;;;13.08;70.36;101398.75;5025011;28;48982;-64
2023/01/02 09:15:43;;;;;;;;;6.67;6.00;;;;;13.08;71.56;101399.69;5022437;28;45483;-63
2023/01/02 09:18:09;;;;;;;;;3.00;2.00;;;;;13.10;71.14;101391.69;5018391;28;45642;-65
2023/01/02 09:20:39;;;;;;;;;1.00;1.00;;;;;13.11;70.98;101396.16;5021980;28;45627;-63
2023/01/02 09:23:04;;;;;;;;;0.00;0.00;;;;;13.03;71.29;101368.22;5024683;28;45491;-62
2023/01/02 09:25:29;;;;;;;;;3.33;2.00;;;;;12.98;71.21;101359.16;5023007;28;45526;-63
2023/01/02 09:27:55;;;;;;;;;3.33;1.00;;;;;12.84;71.26;101329.31;5026288;28;45558;-66
2023/01/02 09:30:20;;;;;;;;;1.00;1.00;;;;;13.06;70.67;101387.97;5023785;28;45780;-64
2023/01/02 09:32:47;;;;;;;;;2.00;0.00;;;;;13.07;70.65;101391.59;5024739;28;46939;-64
2023/01/02 09:35:13;;;;;;;;;1.00;1.00;;;;;13.01;71.70;101402.16;5029897;28;45612;-66
2023/01/02 09:37:39;;;;;;;;;1.67;1.67;;;;;12.96;71.35;101399.34;5020250;28;45690;-65
2023/01/02 09:40:05;;;;;;;;;1.67;0.67;;;;;13.06;71.47;101417.50;5032237;28;45504;-63
2023/01/02 09:42:31;;;;;;;;;2.33;1.00;;;;;12.98;71.34;101394.91;5028944;28;46233;-64
2023/01/02 09:45:01;;;;;;;;;6.33;3.67;;;;;13.13;71.63;101423.94;5028718;28;45518;-63
2023/01/02 09:47:29;;;;;;;;;1.00;1.00;;;;;13.11;71.52;101416.72;5029587;28;45451;-65
2023/01/02 09:50:01;;;;;;;;;5.33;3.00;;;;;13.14;71.25;101414.13;5024583;28;45622;-65
2023/01/02 09:52:35;;;;;;;;;2.00;0.67;;;;;13.09;71.06;101417.59;5010018;28;45776;-65
2023/01/02 09:55:01;;;;;;;;;1.00;1.00;;;;;13.11;71.29;101441.78;5001166;28;45793;-63
2023/01/02 09:57:26;;;;;;;;;2.00;2.00;;;;;13.09;70.72;101460.50;5026025;28;45574;-66
2023/01/02 10:00:19;;;;;;;;;1.00;1.00;;;;;13.08;70.63;101472.13;5024790;28;45600;-66
2023/01/02 10:03:21;;;;;;;;;2.00;2.00;;;;;12.68;70.88;101414.66;5025797;28;46065;-65
2023/01/02 10:06:02;;;;;;;;;1.00;1.00;;;;;12.95;71.26;101477.09;5031850;28;45934;-67
2023/01/02 10:08:51;;;;;;;;;2.00;1.00;;;;;12.98;70.62;101475.38;5033709;28;45446;-65
2023/01/02 10:11:26;;;;;;;;;1.00;1.00;;;;;12.95;70.56;101478.00;5031267;28;45418;-66
2023/01/02 10:14:03;;;;;;;;;0.33;0.33;;;;;12.54;71.50;101418.75;5011743;28;47641;-68
2023/01/02 10:16:36;;;;;;;;;2.00;2.00;;;;;12.88;70.70;101473.31;5024871;28;45623;-64
2023/01/02 10:19:11;;;;;;;;;4.33;2.33;;;;;12.57;70.94;101407.19;5032779;28;45430;-65
2023/01/02 10:21:39;;;;;;;;;3.00;2.00;;;;;12.96;71.74;101463.72;5001692;28;45461;-65
2023/01/02 10:24:22;;;;;;;;;2.00;2.00;;;;;12.84;71.59;101433.88;5027601;28;45519;-68
2023/01/02 10:26:52;;;;;;;;;4.33;2.00;;;;;13.02;71.67;101445.13;5027230;28;46084;-64
2023/01/02 10:29:26;;;;;;;;;2.00;2.00;;;;;13.08;71.96;101449.72;5030044;28;45637;-65
2023/01/02 10:31:58;;;;;;;;;4.00;2.00;;;;;13.01;71.67;101429.88;5024961;28;45704;-64
2023/01/02 10:34:23;;;;;;;;;2.00;1.00;;;;;12.93;71.19;101412.66;5020255;28;47286;-63
2023/01/02 10:36:49;;;;;;;;;5.00;2.67;;;;;13.17;71.45;101463.41;5028435;28;45617;-65
2023/01/02 10:39:20;;;;;;;;;1.00;1.00;;;;;13.14;70.98;101467.78;5028827;28;45477;-66
2023/01/02 10:41:50;;;;;;;;;4.67;2.00;;;;;13.07;70.67;101472.09;5009482;28;45737;-64
2023/01/02 10:44:23;;;;;;;;;3.00;3.00;;;;;13.13;70.69;101469.53;5029530;28;45431;-64
2023/01/02 10:46:49;;;;;;;;;4.33;3.00;;;;;13.14;71.48;101474.06;5020676;28;45404;-64
2023/01/02 10:49:15;;;;;;;;;2.00;2.00;;;;;13.14;70.83;101475.84;5032197;28;45627;-67
2023/01/02 10:52:08;;;;;;;;;2.00;2.00;;;;;13.15;70.45;101496.41;5029576;28;45578;-64
2023/01/02 10:54:50;;;;;;;;;2.67;2.33;;;;;13.11;71.13;101503.47;5023078;28;45486;-63
2023/01/02 10:57:23;;;;;;;;;1.00;1.00;;;;;13.08;70.37;101508.75;5025791;28;45387;-66
2023/01/02 10:59:54;;;;;;;;;2.67;2.00;;;;;13.10;71.17;101523.16;5031088;28;45282;-66
2023/01/02 11:02:27;;;;;;;;;1.00;1.00;;;;;13.08;70.86;101519.47;5024305;28;45717;-66
2023/01/02 11:04:52;;;;;;;;;1.67;1.00;;;;;13.14;70.54;101519.66;5001280;28;46370;-66
2023/01/02 11:07:24;;;;;;;;;0.33;0.33;;;;;13.15;70.47;101517.88;5027035;28;46744;-66
2023/01/02 11:09:55;;;;;;;;;6.33;5.00;;;;;13.00;71.09;101483.47;5031194;28;45313;-66
2023/01/02 11:12:21;;;;;;;;;1.00;1.00;;;;;12.93;70.42;101478.81;5026371;28;45469;-68
2023/01/02 11:14:47;;;;;;;;;1.00;1.00;;;;;13.15;70.55;101520.56;5029034;28;46383;-68
2023/01/02 11:17:16;;;;;;;;;4.00;3.00;;;;;13.14;70.42;101516.09;5030481;28;45458;-67
2023/01/02 11:19:48;;;;;;;;;4.00;4.00;;;;;13.18;70.32;101532.31;5024810;28;45340;-67
2023/01/02 11:22:17;;;;;;;;;3.33;3.33;;;;;13.15;69.78;101528.59;5028117;28;45368;-64
2023/01/02 11:25:01;;;;;;;;;4.00;1.00;;;;;13.22;69.31;101552.09;5026413;28;45356;-64
2023/01/02 11:27:33;;;;;;;;;2.33;2.33;;;;;13.24;69.07;101537.84;5016083;28;45534;-64
2023/01/02 11:30:00;;;;;;;;;6.00;4.00;;;;;12.92;70.17;101475.25;5022671;28;45326;-65
2023/01/02 11:32:37;;;;;;;;;3.00;2.00;;;;;13.36;69.14;101528.34;5021829;28;45428;-65
2023/01/02 11:35:03;;;;;;;;;3.33;2.67;;;;;13.36;69.14;101507.78;5028510;28;46539;-65
2023/01/02 11:37:29;;;;;;;;;4.00;3.00;;;;;13.49;69.29;101533.19;5038083;28;45297;-67